sensor_id;sensor_type;location;lat;lon;timestamp;P1;durP1;ratioP1;P2;durP2;ratioP2
46322;SDS011;32044;52.386;13.278;2022-09-12T00:00:27;5.43;;;4.47;;
46322;SDS011;32044;52.386;13.278;2022-09-12T00:02:53;4.20;;;3.80;;
46322;SDS011;32044;52.386;13.278;2022-09-12T00:05:19;5.00;;;4.20;;
46322;SDS011;32044;52.386;13.278;2022-09-12T00:07:44;5.80;;;4.55;;
46322;SDS011;32044;52.386;13.278;2022-09-12T00:10:10;5.13;;;4.63;;
46322;SDS011;32044;52.386;13.278;2022-09-12T00:12:35;4.47;;;3.75;;
46322;SDS011;32044;52.386;13.278;2022-09-12T00:15:00;4.47;;;4.07;;
46322;SDS011;32044;52.386;13.278;2022-09-12T00:17:25;4.53;;;3.67;;
46322;SDS011;32044;52.386;13.278;2022-09-12T00:19:51;5.43;;;4.32;;
46322;SDS011;32044;52.386;13.278;2022-09-12T00:22:16;4.88;;;3.33;;
46322;SDS011;32044;52.386;13.278;2022-09-12T00:24:42;3.78;;;3.42;;
46322;SDS011;32044;52.386;13.278;2022-09-12T00:27:07;4.45;;;3.38;;
46322;SDS011;32044;52.386;13.278;2022-09-12T00:29:32;3.38;;;3.08;;
46322;SDS011;32044;52.386;13.278;2022-09-12T00:31:57;3.22;;;2.92;;
46322;SDS011;32044;52.386;13.278;2022-09-12T00:34:23;2.83;;;2.45;;
46322;SDS011;32044;52.386;13.278;2022-09-12T00:36:48;2.90;;;2.60;;
46322;SDS011;32044;52.386;13.278;2022-09-12T00:39:14;3.30;;;2.97;;
46322;SDS011;32044;52.386;13.278;2022-09-12T00:41:40;3.15;;;2.70;;
46322;SDS011;32044;52.386;13.278;2022-09-12T00:46:44;2.63;;;2.42;;
46322;SDS011;32044;52.386;13.278;2022-09-12T00:49:13;3.28;;;2.80;;
46322;SDS011;32044;52.386;13.278;2022-09-12T00:51:50;2.40;;;2.20;;
46322;SDS011;32044;52.386;13.278;2022-09-12T00:54:19;3.90;;;2.22;;
46322;SDS011;32044;52.386;13.278;2022-09-12T00:56:47;2.30;;;2.10;;
46322;SDS011;32044;52.386;13.278;2022-09-12T00:59:19;2.80;;;2.17;;
46322;SDS011;32044;52.386;13.278;2022-09-12T01:01:47;3.45;;;2.78;;
46322;SDS011;32044;52.386;13.278;2022-09-12T01:04:13;3.55;;;2.70;;
46322;SDS011;32044;52.386;13.278;2022-09-12T01:06:40;3.40;;;3.10;;
46322;SDS011;32044;52.386;13.278;2022-09-12T01:09:07;4.05;;;2.90;;
46322;SDS011;32044;52.386;13.278;2022-09-12T01:11:34;3.47;;;2.67;;
46322;SDS011;32044;52.386;13.278;2022-09-12T01:14:01;2.60;;;2.40;;
46322;SDS011;32044;52.386;13.278;2022-09-12T01:16:26;2.60;;;2.22;;
46322;SDS011;32044;52.386;13.278;2022-09-12T01:21:35;3.15;;;2.20;;
46322;SDS011;32044;52.386;13.278;2022-09-12T01:24:32;2.63;;;2.35;;
46322;SDS011;32044;52.386;13.278;2022-09-12T01:27:17;2.38;;;2.17;;
46322;SDS011;32044;52.386;13.278;2022-09-12T01:29:55;2.42;;;2.22;;
46322;SDS011;32044;52.386;13.278;2022-09-12T01:35:13;3.08;;;2.42;;
46322;SDS011;32044;52.386;13.278;2022-09-12T01:45:43;2.80;;;2.60;;
46322;SDS011;32044;52.386;13.278;2022-09-12T01:50:49;2.78;;;2.50;;
46322;SDS011;32044;52.386;13.278;2022-09-12T01:53:20;2.65;;;2.45;;
46322;SDS011;32044;52.386;13.278;2022-09-12T01:55:49;3.15;;;2.60;;
46322;SDS011;32044;52.386;13.278;2022-09-12T01:58:19;2.47;;;2.28;;
46322;SDS011;32044;52.386;13.278;2022-09-12T02:00:48;3.03;;;2.72;;
46322;SDS011;32044;52.386;13.278;2022-09-12T02:03:17;4.07;;;2.60;;
46322;SDS011;32044;52.386;13.278;2022-09-12T02:05:46;3.25;;;2.65;;
46322;SDS011;32044;52.386;13.278;2022-09-12T02:11:28;2.65;;;2.38;;
46322;SDS011;32044;52.386;13.278;2022-09-12T02:14:03;2.50;;;2.30;;
46322;SDS011;32044;52.386;13.278;2022-09-12T02:16:33;4.40;;;2.85;;
46322;SDS011;32044;52.386;13.278;2022-09-12T02:19:06;2.33;;;2.10;;
46322;SDS011;32044;52.386;13.278;2022-09-12T02:21:35;5.00;;;2.53;;
46322;SDS011;32044;52.386;13.278;2022-09-12T02:24:02;2.20;;;2.03;;
46322;SDS011;32044;52.386;13.278;2022-09-12T02:26:31;2.10;;;1.90;;
46322;SDS011;32044;52.386;13.278;2022-09-12T02:28:59;1.80;;;1.70;;
46322;SDS011;32044;52.386;13.278;2022-09-12T02:31:26;1.60;;;1.50;;
46322;SDS011;32044;52.386;13.278;2022-09-12T02:34:08;1.73;;;1.60;;
46322;SDS011;32044;52.386;13.278;2022-09-12T02:39:42;1.58;;;1.30;;
46322;SDS011;32044;52.386;13.278;2022-09-12T02:42:08;1.48;;;1.20;;
46322;SDS011;32044;52.386;13.278;2022-09-12T02:44:33;1.83;;;1.08;;
46322;SDS011;32044;52.386;13.278;2022-09-12T02:47:01;0.93;;;0.90;;
46322;SDS011;32044;52.386;13.278;2022-09-12T02:49:29;1.17;;;1.08;;
46322;SDS011;32044;52.386;13.278;2022-09-12T02:51:54;1.10;;;1.00;;
46322;SDS011;32044;52.386;13.278;2022-09-12T02:54:20;1.00;;;1.00;;
46322;SDS011;32044;52.386;13.278;2022-09-12T02:56:45;1.08;;;0.98;;
46322;SDS011;32044;52.386;13.278;2022-09-12T02:59:11;1.30;;;1.20;;
46322;SDS011;32044;52.386;13.278;2022-09-12T03:07:15;2.17;;;1.45;;
46322;SDS011;32044;52.386;13.278;2022-09-12T03:09:52;1.38;;;1.27;;
46322;SDS011;32044;52.386;13.278;2022-09-12T03:15:11;1.45;;;1.35;;
46322;SDS011;32044;52.386;13.278;2022-09-12T03:18:03;1.70;;;1.60;;
46322;SDS011;32044;52.386;13.278;2022-09-12T03:20:43;1.60;;;1.50;;
46322;SDS011;32044;52.386;13.278;2022-09-12T03:23:30;1.38;;;1.27;;
46322;SDS011;32044;52.386;13.278;2022-09-12T03:26:22;1.90;;;1.70;;
46322;SDS011;32044;52.386;13.278;2022-09-12T03:28:51;2.22;;;1.90;;
46322;SDS011;32044;52.386;13.278;2022-09-12T03:31:18;3.47;;;1.80;;
46322;SDS011;32044;52.386;13.278;2022-09-12T03:33:44;2.47;;;1.77;;
46322;SDS011;32044;52.386;13.278;2022-09-12T03:36:18;2.13;;;1.75;;
46322;SDS011;32044;52.386;13.278;2022-09-12T03:38:46;5.72;;;1.63;;
46322;SDS011;32044;52.386;13.278;2022-09-12T03:41:11;1.70;;;1.60;;
46322;SDS011;32044;52.386;13.278;2022-09-12T03:43:37;3.72;;;1.85;;
46322;SDS011;32044;52.386;13.278;2022-09-12T03:46:02;2.30;;;2.10;;
46322;SDS011;32044;52.386;13.278;2022-09-12T03:48:27;1.83;;;1.70;;
46322;SDS011;32044;52.386;13.278;2022-09-12T03:50:52;1.50;;;1.40;;
46322;SDS011;32044;52.386;13.278;2022-09-12T03:53:18;2.00;;;1.65;;
46322;SDS011;32044;52.386;13.278;2022-09-12T03:55:43;2.10;;;1.63;;
46322;SDS011;32044;52.386;13.278;2022-09-12T03:58:08;1.98;;;1.80;;
46322;SDS011;32044;52.386;13.278;2022-09-12T04:00:34;2.10;;;1.90;;
46322;SDS011;32044;52.386;13.278;2022-09-12T04:02:59;1.80;;;1.70;;
46322;SDS011;32044;52.386;13.278;2022-09-12T04:05:24;1.92;;;1.80;;
46322;SDS011;32044;52.386;13.278;2022-09-12T04:07:50;1.65;;;1.55;;
46322;SDS011;32044;52.386;13.278;2022-09-12T04:10:15;2.10;;;1.90;;
46322;SDS011;32044;52.386;13.278;2022-09-12T04:12:40;2.78;;;1.70;;
46322;SDS011;32044;52.386;13.278;2022-09-12T04:15:06;2.33;;;1.92;;
46322;SDS011;32044;52.386;13.278;2022-09-12T04:17:32;2.05;;;1.85;;
46322;SDS011;32044;52.386;13.278;2022-09-12T04:19:58;2.33;;;2.10;;
46322;SDS011;32044;52.386;13.278;2022-09-12T04:22:23;2.53;;;1.88;;
46322;SDS011;32044;52.386;13.278;2022-09-12T04:24:49;3.60;;;2.08;;
46322;SDS011;32044;52.386;13.278;2022-09-12T04:27:14;2.40;;;1.90;;
46322;SDS011;32044;52.386;13.278;2022-09-12T04:29:39;3.15;;;1.88;;
46322;SDS011;32044;52.386;13.278;2022-09-12T04:32:05;1.60;;;1.48;;
46322;SDS011;32044;52.386;13.278;2022-09-12T04:34:30;1.63;;;1.52;;
46322;SDS011;32044;52.386;13.278;2022-09-12T04:36:56;3.03;;;1.77;;
46322;SDS011;32044;52.386;13.278;2022-09-12T04:39:21;2.83;;;1.35;;
46322;SDS011;32044;52.386;13.278;2022-09-12T04:41:47;1.83;;;1.50;;
46322;SDS011;32044;52.386;13.278;2022-09-12T04:44:12;1.52;;;1.42;;
46322;SDS011;32044;52.386;13.278;2022-09-12T04:46:41;1.70;;;1.60;;
46322;SDS011;32044;52.386;13.278;2022-09-12T04:49:07;1.67;;;1.55;;
46322;SDS011;32044;52.386;13.278;2022-09-12T04:51:33;1.50;;;1.40;;
46322;SDS011;32044;52.386;13.278;2022-09-12T04:54:01;1.70;;;1.60;;
46322;SDS011;32044;52.386;13.278;2022-09-12T04:56:27;3.17;;;1.42;;
46322;SDS011;32044;52.386;13.278;2022-09-12T04:58:55;1.83;;;1.65;;
46322;SDS011;32044;52.386;13.278;2022-09-12T05:01:21;1.50;;;1.40;;
46322;SDS011;32044;52.386;13.278;2022-09-12T05:03:47;1.33;;;1.23;;
46322;SDS011;32044;52.386;13.278;2022-09-12T05:06:14;1.33;;;1.23;;
46322;SDS011;32044;52.386;13.278;2022-09-12T05:08:42;1.50;;;1.40;;
46322;SDS011;32044;52.386;13.278;2022-09-12T05:11:09;1.38;;;1.27;;
46322;SDS011;32044;52.386;13.278;2022-09-12T05:13:37;2.30;;;2.00;;
46322;SDS011;32044;52.386;13.278;2022-09-12T05:16:03;2.40;;;2.10;;
46322;SDS011;32044;52.386;13.278;2022-09-12T05:18:30;2.95;;;2.20;;
46322;SDS011;32044;52.386;13.278;2022-09-12T05:21:00;4.18;;;2.60;;
46322;SDS011;32044;52.386;13.278;2022-09-12T05:23:27;3.67;;;2.90;;
46322;SDS011;32044;52.386;13.278;2022-09-12T05:25:53;3.90;;;2.92;;
46322;SDS011;32044;52.386;13.278;2022-09-12T05:28:19;5.43;;;4.00;;
46322;SDS011;32044;52.386;13.278;2022-09-12T05:30:46;3.75;;;2.88;;
46322;SDS011;32044;52.386;13.278;2022-09-12T05:33:12;3.00;;;2.42;;
46322;SDS011;32044;52.386;13.278;2022-09-12T05:35:38;3.67;;;2.97;;
46322;SDS011;32044;52.386;13.278;2022-09-12T05:38:04;3.70;;;3.10;;
46322;SDS011;32044;52.386;13.278;2022-09-12T05:40:30;3.58;;;2.80;;
46322;SDS011;32044;52.386;13.278;2022-09-12T05:42:55;3.45;;;2.45;;
46322;SDS011;32044;52.386;13.278;2022-09-12T05:45:21;3.38;;;2.45;;
46322;SDS011;32044;52.386;13.278;2022-09-12T05:47:46;3.50;;;2.72;;
46322;SDS011;32044;52.386;13.278;2022-09-12T05:50:12;3.22;;;2.70;;
46322;SDS011;32044;52.386;13.278;2022-09-12T05:52:37;3.30;;;2.58;;
46322;SDS011;32044;52.386;13.278;2022-09-12T05:55:03;4.80;;;3.33;;
46322;SDS011;32044;52.386;13.278;2022-09-12T05:57:29;4.45;;;3.50;;
46322;SDS011;32044;52.386;13.278;2022-09-12T05:59:54;4.07;;;3.67;;
46322;SDS011;32044;52.386;13.278;2022-09-12T06:02:19;4.50;;;3.65;;
46322;SDS011;32044;52.386;13.278;2022-09-12T06:04:45;4.22;;;3.78;;
46322;SDS011;32044;52.386;13.278;2022-09-12T06:07:10;5.88;;;3.65;;
46322;SDS011;32044;52.386;13.278;2022-09-12T06:09:35;4.60;;;4.20;;
46322;SDS011;32044;52.386;13.278;2022-09-12T06:12:00;13.88;;;6.32;;
46322;SDS011;32044;52.386;13.278;2022-09-12T06:14:26;13.38;;;5.47;;
46322;SDS011;32044;52.386;13.278;2022-09-12T06:16:51;9.88;;;5.70;;
46322;SDS011;32044;52.386;13.278;2022-09-12T06:19:20;6.95;;;5.43;;
46322;SDS011;32044;52.386;13.278;2022-09-12T06:21:47;5.40;;;4.90;;
46322;SDS011;32044;52.386;13.278;2022-09-12T06:24:13;8.65;;;4.68;;
46322;SDS011;32044;52.386;13.278;2022-09-12T06:26:39;6.80;;;6.03;;
46322;SDS011;32044;52.386;13.278;2022-09-12T06:29:04;5.93;;;5.35;;
46322;SDS011;32044;52.386;13.278;2022-09-12T06:31:34;6.50;;;5.90;;
46322;SDS011;32044;52.386;13.278;2022-09-12T06:34:01;6.45;;;5.85;;
46322;SDS011;32044;52.386;13.278;2022-09-12T06:36:29;7.70;;;6.53;;
46322;SDS011;32044;52.386;13.278;2022-09-12T06:38:59;8.40;;;7.10;;
46322;SDS011;32044;52.386;13.278;2022-09-12T06:41:26;7.78;;;6.97;;
46322;SDS011;32044;52.386;13.278;2022-09-12T06:43:52;8.88;;;7.85;;
46322;SDS011;32044;52.386;13.278;2022-09-12T06:46:18;8.40;;;7.60;;
46322;SDS011;32044;52.386;13.278;2022-09-12T06:48:43;8.88;;;7.88;;
46322;SDS011;32044;52.386;13.278;2022-09-12T06:51:10;7.38;;;6.68;;
46322;SDS011;32044;52.386;13.278;2022-09-12T06:53:39;7.50;;;6.53;;
46322;SDS011;32044;52.386;13.278;2022-09-12T06:56:09;8.02;;;5.93;;
46322;SDS011;32044;52.386;13.278;2022-09-12T06:58:38;6.63;;;5.93;;
46322;SDS011;32044;52.386;13.278;2022-09-12T07:01:05;5.93;;;5.25;;
46322;SDS011;32044;52.386;13.278;2022-09-12T07:03:30;7.40;;;5.10;;
46322;SDS011;32044;52.386;13.278;2022-09-12T07:05:56;5.07;;;4.05;;
46322;SDS011;32044;52.386;13.278;2022-09-12T07:08:25;3.50;;;3.20;;
46322;SDS011;32044;52.386;13.278;2022-09-12T07:10:50;5.45;;;2.80;;
46322;SDS011;32044;52.386;13.278;2022-09-12T07:13:16;4.22;;;3.20;;
46322;SDS011;32044;52.386;13.278;2022-09-12T07:15:41;4.65;;;3.20;;
46322;SDS011;32044;52.386;13.278;2022-09-12T07:18:07;3.65;;;3.00;;
46322;SDS011;32044;52.386;13.278;2022-09-12T07:20:34;4.72;;;2.67;;
46322;SDS011;32044;52.386;13.278;2022-09-12T07:23:01;3.05;;;2.50;;
46322;SDS011;32044;52.386;13.278;2022-09-12T07:25:26;3.10;;;2.20;;
46322;SDS011;32044;52.386;13.278;2022-09-12T07:27:52;2.85;;;2.00;;
46322;SDS011;32044;52.386;13.278;2022-09-12T07:30:17;3.85;;;2.30;;
46322;SDS011;32044;52.386;13.278;2022-09-12T07:32:42;3.03;;;2.28;;
46322;SDS011;32044;52.386;13.278;2022-09-12T07:35:08;3.75;;;1.80;;
46322;SDS011;32044;52.386;13.278;2022-09-12T07:37:33;6.40;;;1.70;;
46322;SDS011;32044;52.386;13.278;2022-09-12T07:39:59;4.25;;;2.08;;
46322;SDS011;32044;52.386;13.278;2022-09-12T07:42:24;2.38;;;2.10;;
46322;SDS011;32044;52.386;13.278;2022-09-12T07:44:49;5.13;;;2.60;;
46322;SDS011;32044;52.386;13.278;2022-09-12T07:47:16;2.42;;;2.22;;
46322;SDS011;32044;52.386;13.278;2022-09-12T07:49:42;2.70;;;2.10;;
46322;SDS011;32044;52.386;13.278;2022-09-12T07:52:07;2.78;;;1.90;;
46322;SDS011;32044;52.386;13.278;2022-09-12T07:54:32;2.78;;;2.17;;
46322;SDS011;32044;52.386;13.278;2022-09-12T07:56:58;2.83;;;2.00;;
46322;SDS011;32044;52.386;13.278;2022-09-12T07:59:23;2.10;;;1.77;;
46322;SDS011;32044;52.386;13.278;2022-09-12T08:01:49;2.78;;;1.83;;
46322;SDS011;32044;52.386;13.278;2022-09-12T08:04:14;1.65;;;1.30;;
46322;SDS011;32044;52.386;13.278;2022-09-12T08:06:39;2.45;;;1.48;;
46322;SDS011;32044;52.386;13.278;2022-09-12T08:09:05;3.53;;;1.48;;
46322;SDS011;32044;52.386;13.278;2022-09-12T08:11:31;2.28;;;1.30;;
46322;SDS011;32044;52.386;13.278;2022-09-12T08:13:57;1.60;;;1.42;;
46322;SDS011;32044;52.386;13.278;2022-09-12T08:16:23;1.60;;;1.25;;
46322;SDS011;32044;52.386;13.278;2022-09-12T08:18:50;1.42;;;1.30;;
46322;SDS011;32044;52.386;13.278;2022-09-12T08:21:16;2.58;;;1.30;;
46322;SDS011;32044;52.386;13.278;2022-09-12T08:23:43;2.22;;;1.40;;
46322;SDS011;32044;52.386;13.278;2022-09-12T08:26:09;1.77;;;1.20;;
46322;SDS011;32044;52.386;13.278;2022-09-12T08:28:35;2.08;;;1.20;;
46322;SDS011;32044;52.386;13.278;2022-09-12T08:31:02;3.08;;;1.20;;
46322;SDS011;32044;52.386;13.278;2022-09-12T08:33:28;3.97;;;1.00;;
46322;SDS011;32044;52.386;13.278;2022-09-12T08:36:11;0.98;;;0.90;;
46322;SDS011;32044;52.386;13.278;2022-09-12T08:38:39;1.70;;;1.02;;
46322;SDS011;32044;52.386;13.278;2022-09-12T08:44:09;1.42;;;1.00;;
46322;SDS011;32044;52.386;13.278;2022-09-12T08:49:14;3.85;;;1.25;;
46322;SDS011;32044;52.386;13.278;2022-09-12T08:51:49;1.60;;;1.10;;
46322;SDS011;32044;52.386;13.278;2022-09-12T08:54:19;0.88;;;0.88;;
46322;SDS011;32044;52.386;13.278;2022-09-12T08:56:47;1.02;;;0.90;;
46322;SDS011;32044;52.386;13.278;2022-09-12T08:59:12;1.30;;;1.10;;
46322;SDS011;32044;52.386;13.278;2022-09-12T09:01:39;1.45;;;0.98;;
46322;SDS011;32044;52.386;13.278;2022-09-12T09:04:19;1.95;;;0.90;;
46322;SDS011;32044;52.386;13.278;2022-09-12T09:09:33;2.28;;;1.25;;
46322;SDS011;32044;52.386;13.278;2022-09-12T09:15:03;1.92;;;0.77;;
46322;SDS011;32044;52.386;13.278;2022-09-12T09:17:41;1.33;;;0.95;;
46322;SDS011;32044;52.386;13.278;2022-09-12T09:23:19;1.48;;;1.00;;
46322;SDS011;32044;52.386;13.278;2022-09-12T09:25:52;4.60;;;0.73;;
46322;SDS011;32044;52.386;13.278;2022-09-12T09:28:22;3.15;;;1.20;;
46322;SDS011;32044;52.386;13.278;2022-09-12T09:30:50;1.52;;;0.70;;
46322;SDS011;32044;52.386;13.278;2022-09-12T09:33:24;2.60;;;1.17;;
46322;SDS011;32044;52.386;13.278;2022-09-12T09:35:53;1.73;;;1.17;;
46322;SDS011;32044;52.386;13.278;2022-09-12T09:38:26;3.63;;;1.40;;
46322;SDS011;32044;52.386;13.278;2022-09-12T09:41:32;5.15;;;1.13;;
46322;SDS011;32044;52.386;13.278;2022-09-12T09:44:04;1.08;;;0.77;;
46322;SDS011;32044;52.386;13.278;2022-09-12T09:46:29;1.00;;;0.65;;
46322;SDS011;32044;52.386;13.278;2022-09-12T09:48:56;1.98;;;0.75;;
46322;SDS011;32044;52.386;13.278;2022-09-12T09:51:31;1.55;;;0.77;;
46322;SDS011;32044;52.386;13.278;2022-09-12T09:54:02;1.20;;;1.08;;
46322;SDS011;32044;52.386;13.278;2022-09-12T09:56:35;1.60;;;1.00;;
46322;SDS011;32044;52.386;13.278;2022-09-12T09:59:10;1.50;;;0.80;;
46322;SDS011;32044;52.386;13.278;2022-09-12T10:01:45;0.57;;;0.50;;
46322;SDS011;32044;52.386;13.278;2022-09-12T10:04:22;0.88;;;0.70;;
46322;SDS011;32044;52.386;13.278;2022-09-12T10:06:56;2.38;;;0.80;;
46322;SDS011;32044;52.386;13.278;2022-09-12T10:09:24;1.95;;;1.10;;
46322;SDS011;32044;52.386;13.278;2022-09-12T10:11:51;2.83;;;1.00;;
46322;SDS011;32044;52.386;13.278;2022-09-12T10:14:34;2.50;;;1.17;;
46322;SDS011;32044;52.386;13.278;2022-09-12T10:17:02;0.77;;;0.77;;
46322;SDS011;32044;52.386;13.278;2022-09-12T10:19:46;1.33;;;0.65;;
46322;SDS011;32044;52.386;13.278;2022-09-12T10:22:15;2.72;;;0.70;;
46322;SDS011;32044;52.386;13.278;2022-09-12T10:24:45;1.70;;;1.47;;
46322;SDS011;32044;52.386;13.278;2022-09-12T10:27:16;1.60;;;1.13;;
46322;SDS011;32044;52.386;13.278;2022-09-12T10:29:45;1.77;;;0.90;;
46322;SDS011;32044;52.386;13.278;2022-09-12T10:34:59;0.95;;;0.68;;
46322;SDS011;32044;52.386;13.278;2022-09-12T10:37:34;1.63;;;0.75;;
46322;SDS011;32044;52.386;13.278;2022-09-12T10:40:00;1.73;;;1.08;;
46322;SDS011;32044;52.386;13.278;2022-09-12T10:45:26;1.73;;;0.80;;
46322;SDS011;32044;52.386;13.278;2022-09-12T10:47:57;0.70;;;0.70;;
46322;SDS011;32044;52.386;13.278;2022-09-12T10:50:38;1.17;;;0.77;;
46322;SDS011;32044;52.386;13.278;2022-09-12T10:53:26;1.08;;;0.95;;
46322;SDS011;32044;52.386;13.278;2022-09-12T10:56:04;1.88;;;0.90;;
46322;SDS011;32044;52.386;13.278;2022-09-12T11:01:41;1.70;;;1.00;;
46322;SDS011;32044;52.386;13.278;2022-09-12T11:04:18;1.75;;;0.55;;
46322;SDS011;32044;52.386;13.278;2022-09-12T11:09:57;0.98;;;0.90;;
46322;SDS011;32044;52.386;13.278;2022-09-12T11:12:40;2.15;;;0.80;;
46322;SDS011;32044;52.386;13.278;2022-09-12T11:20:41;0.90;;;0.80;;
46322;SDS011;32044;52.386;13.278;2022-09-12T11:25:45;3.23;;;1.97;;
46322;SDS011;32044;52.386;13.278;2022-09-12T11:30:59;0.82;;;0.73;;
46322;SDS011;32044;52.386;13.278;2022-09-12T11:33:40;0.95;;;0.82;;
46322;SDS011;32044;52.386;13.278;2022-09-12T11:36:10;1.25;;;0.77;;
46322;SDS011;32044;52.386;13.278;2022-09-12T11:41:19;2.35;;;0.80;;
46322;SDS011;32044;52.386;13.278;2022-09-12T11:44:02;2.10;;;0.90;;
46322;SDS011;32044;52.386;13.278;2022-09-12T11:46:35;0.82;;;0.70;;
46322;SDS011;32044;52.386;13.278;2022-09-12T11:49:09;1.55;;;0.70;;
46322;SDS011;32044;52.386;13.278;2022-09-12T11:51:49;1.20;;;1.08;;
46322;SDS011;32044;52.386;13.278;2022-09-12T11:59:50;1.10;;;0.90;;
46322;SDS011;32044;52.386;13.278;2022-09-12T12:02:24;1.33;;;1.08;;
46322;SDS011;32044;52.386;13.278;2022-09-12T12:07:58;1.25;;;0.70;;
46322;SDS011;32044;52.386;13.278;2022-09-12T12:12:58;2.97;;;1.10;;
46322;SDS011;32044;52.386;13.278;2022-09-12T12:15:25;1.75;;;1.00;;
46322;SDS011;32044;52.386;13.278;2022-09-12T12:18:02;1.67;;;0.88;;
46322;SDS011;32044;52.386;13.278;2022-09-12T12:20:32;1.85;;;1.05;;
46322;SDS011;32044;52.386;13.278;2022-09-12T12:22:58;1.00;;;0.82;;
46322;SDS011;32044;52.386;13.278;2022-09-12T12:25:25;1.10;;;0.77;;
46322;SDS011;32044;52.386;13.278;2022-09-12T12:28:03;3.83;;;0.98;;
46322;SDS011;32044;52.386;13.278;2022-09-12T12:35:41;1.85;;;0.98;;
46322;SDS011;32044;52.386;13.278;2022-09-12T12:43:42;1.60;;;0.68;;
46322;SDS011;32044;52.386;13.278;2022-09-12T12:46:09;0.65;;;0.65;;
46322;SDS011;32044;52.386;13.278;2022-09-12T12:48:55;1.80;;;1.02;;
46322;SDS011;32044;52.386;13.278;2022-09-12T12:53:58;1.45;;;1.00;;
46322;SDS011;32044;52.386;13.278;2022-09-12T12:56:25;1.98;;;1.00;;
46322;SDS011;32044;52.386;13.278;2022-09-12T12:58:58;3.63;;;1.20;;
46322;SDS011;32044;52.386;13.278;2022-09-12T13:01:25;2.85;;;1.13;;
46322;SDS011;32044;52.386;13.278;2022-09-12T13:03:53;2.15;;;1.23;;
46322;SDS011;32044;52.386;13.278;2022-09-12T13:06:42;9.70;;;2.45;;
46322;SDS011;32044;52.386;13.278;2022-09-12T13:09:07;3.00;;;1.20;;
46322;SDS011;32044;52.386;13.278;2022-09-12T13:11:41;2.70;;;1.00;;
46322;SDS011;32044;52.386;13.278;2022-09-12T13:14:31;1.40;;;1.13;;
46322;SDS011;32044;52.386;13.278;2022-09-12T13:17:12;1.83;;;1.00;;
46322;SDS011;32044;52.386;13.278;2022-09-12T13:19:39;1.38;;;1.10;;
46322;SDS011;32044;52.386;13.278;2022-09-12T13:22:06;1.45;;;0.80;;
46322;SDS011;32044;52.386;13.278;2022-09-12T13:24:33;1.20;;;0.98;;
46322;SDS011;32044;52.386;13.278;2022-09-12T13:26:59;1.95;;;0.82;;
46322;SDS011;32044;52.386;13.278;2022-09-12T13:29:25;0.95;;;0.88;;
46322;SDS011;32044;52.386;13.278;2022-09-12T13:31:55;2.03;;;0.85;;
46322;SDS011;32044;52.386;13.278;2022-09-12T13:34:26;2.50;;;1.00;;
46322;SDS011;32044;52.386;13.278;2022-09-12T13:36:56;1.15;;;0.90;;
46322;SDS011;32044;52.386;13.278;2022-09-12T13:45:02;0.80;;;0.80;;
46322;SDS011;32044;52.386;13.278;2022-09-12T13:47:31;2.20;;;0.77;;
46322;SDS011;32044;52.386;13.278;2022-09-12T13:50:00;2.05;;;0.77;;
46322;SDS011;32044;52.386;13.278;2022-09-12T13:52:27;2.00;;;1.00;;
46322;SDS011;32044;52.386;13.278;2022-09-12T13:54:55;0.68;;;0.63;;
46322;SDS011;32044;52.386;13.278;2022-09-12T13:57:26;2.25;;;1.08;;
46322;SDS011;32044;52.386;13.278;2022-09-12T14:00:04;1.63;;;0.80;;
46322;SDS011;32044;52.386;13.278;2022-09-12T14:02:47;2.58;;;1.15;;
46322;SDS011;32044;52.386;13.278;2022-09-12T14:05:18;0.95;;;0.93;;
46322;SDS011;32044;52.386;13.278;2022-09-12T14:07:59;1.17;;;0.93;;
46322;SDS011;32044;52.386;13.278;2022-09-12T14:12:57;3.93;;;1.57;;
46322;SDS011;32044;52.386;13.278;2022-09-12T14:15:24;1.52;;;1.00;;
46322;SDS011;32044;52.386;13.278;2022-09-12T14:17:52;1.35;;;0.98;;
46322;SDS011;32044;52.386;13.278;2022-09-12T14:20:19;1.23;;;0.85;;
46322;SDS011;32044;52.386;13.278;2022-09-12T14:22:47;3.03;;;1.02;;
46322;SDS011;32044;52.386;13.278;2022-09-12T14:25:17;3.63;;;1.17;;
46322;SDS011;32044;52.386;13.278;2022-09-12T14:27:44;1.80;;;1.00;;
46322;SDS011;32044;52.386;13.278;2022-09-12T14:30:19;1.58;;;0.93;;
46322;SDS011;32044;52.386;13.278;2022-09-12T14:33:02;2.08;;;1.02;;
46322;SDS011;32044;52.386;13.278;2022-09-12T14:35:34;1.70;;;1.30;;
46322;SDS011;32044;52.386;13.278;2022-09-12T14:40:50;1.02;;;0.90;;
46322;SDS011;32044;52.386;13.278;2022-09-12T14:43:24;2.22;;;1.15;;
46322;SDS011;32044;52.386;13.278;2022-09-12T14:45:52;1.02;;;0.93;;
46322;SDS011;32044;52.386;13.278;2022-09-12T14:48:19;1.98;;;0.82;;
46322;SDS011;32044;52.386;13.278;2022-09-12T14:50:47;2.58;;;1.30;;
46322;SDS011;32044;52.386;13.278;2022-09-12T14:55:42;1.02;;;1.02;;
46322;SDS011;32044;52.386;13.278;2022-09-12T15:00:59;1.33;;;0.98;;
46322;SDS011;32044;52.386;13.278;2022-09-12T15:05:56;1.40;;;1.10;;
46322;SDS011;32044;52.386;13.278;2022-09-12T15:08:22;1.23;;;1.10;;
46322;SDS011;32044;52.386;13.278;2022-09-12T15:10:47;1.50;;;0.73;;
46322;SDS011;32044;52.386;13.278;2022-09-12T15:13:17;1.10;;;0.98;;
46322;SDS011;32044;52.386;13.278;2022-09-12T15:15:44;1.95;;;1.10;;
46322;SDS011;32044;52.386;13.278;2022-09-12T15:18:11;1.02;;;0.95;;
46322;SDS011;32044;52.386;13.278;2022-09-12T15:20:38;1.10;;;1.00;;
46322;SDS011;32044;52.386;13.278;2022-09-12T15:23:05;1.33;;;1.00;;
46322;SDS011;32044;52.386;13.278;2022-09-12T15:25:34;1.20;;;1.10;;
46322;SDS011;32044;52.386;13.278;2022-09-12T15:28:00;1.15;;;1.08;;
46322;SDS011;32044;52.386;13.278;2022-09-12T15:30:25;1.48;;;1.20;;
46322;SDS011;32044;52.386;13.278;2022-09-12T15:32:51;1.65;;;0.80;;
46322;SDS011;32044;52.386;13.278;2022-09-12T15:35:17;1.38;;;0.77;;
46322;SDS011;32044;52.386;13.278;2022-09-12T15:37:46;1.63;;;1.02;;
46322;SDS011;32044;52.386;13.278;2022-09-12T15:40:12;1.17;;;1.00;;
46322;SDS011;32044;52.386;13.278;2022-09-12T15:42:37;1.02;;;0.90;;
46322;SDS011;32044;52.386;13.278;2022-09-12T15:47:41;1.00;;;0.82;;
46322;SDS011;32044;52.386;13.278;2022-09-12T15:50:07;1.95;;;1.20;;
46322;SDS011;32044;52.386;13.278;2022-09-12T15:52:32;3.50;;;1.55;;
46322;SDS011;32044;52.386;13.278;2022-09-12T15:54:58;1.95;;;1.00;;
46322;SDS011;32044;52.386;13.278;2022-09-12T15:57:23;1.38;;;0.95;;
46322;SDS011;32044;52.386;13.278;2022-09-12T15:59:49;2.03;;;1.17;;
46322;SDS011;32044;52.386;13.278;2022-09-12T16:02:14;2.95;;;1.30;;
46322;SDS011;32044;52.386;13.278;2022-09-12T16:04:39;1.25;;;1.15;;
46322;SDS011;32044;52.386;13.278;2022-09-12T16:07:04;1.55;;;1.00;;
46322;SDS011;32044;52.386;13.278;2022-09-12T16:09:30;1.17;;;1.08;;
46322;SDS011;32044;52.386;13.278;2022-09-12T16:11:55;0.80;;;0.80;;
46322;SDS011;32044;52.386;13.278;2022-09-12T16:14:21;1.38;;;1.05;;
46322;SDS011;32044;52.386;13.278;2022-09-12T16:16:52;1.00;;;0.90;;
46322;SDS011;32044;52.386;13.278;2022-09-12T16:21:43;1.10;;;1.02;;
46322;SDS011;32044;52.386;13.278;2022-09-12T16:24:08;0.95;;;0.95;;
46322;SDS011;32044;52.386;13.278;2022-09-12T16:26:33;1.00;;;0.95;;
46322;SDS011;32044;52.386;13.278;2022-09-12T16:28:59;0.90;;;0.90;;
46322;SDS011;32044;52.386;13.278;2022-09-12T16:31:25;1.95;;;1.00;;
46322;SDS011;32044;52.386;13.278;2022-09-12T16:33:51;1.50;;;1.25;;
46322;SDS011;32044;52.386;13.278;2022-09-12T16:36:17;1.50;;;1.05;;
46322;SDS011;32044;52.386;13.278;2022-09-12T16:38:44;2.10;;;1.20;;
46322;SDS011;32044;52.386;13.278;2022-09-12T16:41:11;1.42;;;1.08;;
46322;SDS011;32044;52.386;13.278;2022-09-12T16:43:36;1.50;;;1.05;;